createdAt,value
2022-09-24T00:01:44.508Z,101230.34
2022-09-24T00:04:16.079Z,101224.13
2022-09-24T00:06:45.844Z,101233.88
2022-09-24T00:09:14.992Z,101221.47
2022-09-24T00:11:44.080Z,101213.59
2022-09-24T00:14:11.232Z,101215.22
2022-09-24T00:16:44.063Z,101214.28
2022-09-24T00:19:14.215Z,101205.38
2022-09-24T00:21:41.691Z,101208.88
2022-09-24T00:24:32.624Z,101200.88
2022-09-24T00:26:59.694Z,101208.72
2022-09-24T00:29:28.338Z,101212.31
2022-09-24T00:31:55.406Z,101207.00
2022-09-24T00:34:22.124Z,101210.59
2022-09-24T00:36:48.807Z,101207.88
2022-09-24T00:39:18.942Z,101205.22
2022-09-24T00:41:51.242Z,101204.41
2022-09-24T00:44:37.543Z,101211.72
2022-09-24T00:47:05.031Z,101208.19
2022-09-24T00:49:32.068Z,101219.63
2022-09-24T00:51:58.694Z,101207.09
2022-09-24T00:54:28.769Z,101206.13
2022-09-24T00:56:57.955Z,101209.63
2022-09-24T00:59:29.045Z,101210.44
2022-09-24T01:01:59.539Z,101203.28
2022-09-24T01:04:27.915Z,101197.91
2022-09-24T01:06:55.766Z,101198.66
2022-09-24T01:09:26.047Z,101197.78
2022-09-24T01:12:23.318Z,101203.03
2022-09-24T01:15:10.099Z,101199.50
2022-09-24T01:17:50.624Z,101202.16
2022-09-24T01:20:45.144Z,101194.19
2022-09-24T01:23:15.391Z,101202.06
2022-09-24T01:26:20.619Z,101196.75
2022-09-24T01:29:06.975Z,101192.41
2022-09-24T01:31:41.035Z,101194.19
2022-09-24T01:34:09.233Z,101197.78
2022-09-24T01:36:37.074Z,101190.66
2022-09-24T01:39:06.800Z,101191.53
2022-09-24T01:41:34.312Z,101195.97
2022-09-24T01:44:03.208Z,101197.72
2022-09-24T01:46:32.078Z,101193.16
2022-09-24T01:48:59.292Z,101190.50
2022-09-24T01:51:39.212Z,101196.66
2022-09-24T01:54:33.100Z,101196.56
2022-09-24T01:57:09.948Z,101189.47
2022-09-24T01:59:40.619Z,101196.44
2022-09-24T02:02:14.662Z,101198.16
2022-09-24T02:04:47.632Z,101199.91
2022-09-24T02:07:22.879Z,101192.84
2022-09-24T02:09:49.823Z,101196.44
2022-09-24T02:12:35.698Z,101192.84
2022-09-24T02:15:11.611Z,101192.97
2022-09-24T02:17:40.857Z,101184.97
2022-09-24T02:20:16.455Z,101182.31
2022-09-24T02:22:45.778Z,101176.16
2022-09-24T02:25:18.426Z,101184.06
2022-09-24T02:27:45.081Z,101184.06
2022-09-24T02:30:12.137Z,101185.84
2022-09-24T02:32:41.105Z,101185.81
2022-09-24T02:35:10.255Z,101190.19
2022-09-24T02:37:42.724Z,101187.53
2022-09-24T02:40:13.543Z,101173.44
2022-09-24T02:42:42.321Z,101179.69
2022-09-24T02:45:10.642Z,101177.13
2022-09-24T02:47:37.658Z,101177.13
2022-09-24T02:50:04.762Z,101175.38
2022-09-24T02:52:31.464Z,101175.38
2022-09-24T02:54:58.150Z,101175.41
2022-09-24T02:57:24.751Z,101175.50
2022-09-24T02:59:51.343Z,101172.75
2022-09-24T03:02:18.027Z,101177.22
2022-09-24T03:04:44.797Z,101170.19
2022-09-24T03:07:14.643Z,101171.91
2022-09-24T03:09:41.520Z,101168.44
2022-09-24T03:12:08.284Z,101170.28
2022-09-24T03:14:35.018Z,101171.22
2022-09-24T03:17:01.667Z,101175.00
2022-09-24T03:19:28.318Z,101176.09
2022-09-24T03:21:54.906Z,101172.63
2022-09-24T03:24:21.491Z,101164.66
2022-09-24T03:26:48.127Z,101168.94
2022-09-24T03:29:14.791Z,101161.75
2022-09-24T03:31:41.461Z,101160.78
2022-09-24T03:34:08.959Z,101164.22
2022-09-24T03:36:35.630Z,101166.00
2022-09-24T03:39:02.270Z,101166.88
2022-09-24T03:41:28.977Z,101169.69
2022-09-24T03:43:56.604Z,101166.22
2022-09-24T03:46:30.199Z,101175.19
2022-09-24T03:48:59.422Z,101170.75
2022-09-24T03:51:26.142Z,101169.78
2022-09-24T03:53:52.761Z,101170.56
2022-09-24T03:56:19.371Z,101166.97
2022-09-24T03:58:48.233Z,101170.38
2022-09-24T04:01:20.692Z,101168.56
2022-09-24T04:03:48.579Z,101165.81
2022-09-24T04:06:15.303Z,101166.69
2022-09-24T04:08:41.956Z,101176.34
2022-09-24T04:11:08.629Z,101171.03
2022-09-24T04:13:35.379Z,101168.38
2022-09-24T04:16:05.398Z,101163.00
2022-09-24T04:18:35.683Z,101162.09
2022-09-24T04:21:05.251Z,101177.22
2022-09-24T04:23:31.852Z,101177.31
2022-09-24T04:26:02.326Z,101173.75
2022-09-24T04:28:30.180Z,101173.75
2022-09-24T04:30:57.342Z,101172.84
2022-09-24T04:33:24.067Z,101168.38
2022-09-24T04:35:50.749Z,101176.34
2022-09-24T04:38:18.755Z,101175.50
2022-09-24T04:40:47.426Z,101176.34
2022-09-24T04:43:14.166Z,101170.97
2022-09-24T04:45:46.471Z,101182.50
2022-09-24T04:48:14.024Z,101179.78
2022-09-24T04:50:45.563Z,101179.69
2022-09-24T04:53:12.949Z,101183.25
2022-09-24T04:55:39.736Z,101179.69
2022-09-24T04:58:06.555Z,101180.59
2022-09-24T05:00:33.556Z,101184.16
2022-09-24T05:03:05.114Z,101177.97
2022-09-24T05:05:33.312Z,101182.44
2022-09-24T05:08:01.629Z,101179.78
2022-09-24T05:10:29.889Z,101179.88
2022-09-24T05:12:56.488Z,101176.41
2022-09-24T05:15:23.448Z,101175.63
2022-09-24T05:17:50.062Z,101180.19
2022-09-24T05:20:19.791Z,101173.19
2022-09-24T05:22:49.628Z,101180.25
2022-09-24T05:25:20.884Z,101182.81
2022-09-24T05:27:52.298Z,101181.88
2022-09-24T05:30:22.382Z,101182.63
2022-09-24T05:32:52.278Z,101190.50
2022-09-24T05:35:24.002Z,101184.25
2022-09-24T05:37:56.290Z,101188.59
2022-09-24T05:40:44.376Z,101186.00
2022-09-24T05:43:13.631Z,101189.44
2022-09-24T05:45:43.530Z,101190.31
2022-09-24T05:48:12.087Z,101197.34
2022-09-24T05:50:38.798Z,101188.47
2022-09-24T05:53:06.270Z,101190.19
2022-09-24T05:55:33.659Z,101188.31
2022-09-24T05:58:07.830Z,101190.88
2022-09-24T06:00:37.726Z,101194.38
2022-09-24T06:03:08.956Z,101190.78
2022-09-24T06:05:35.888Z,101190.78
2022-09-24T06:08:06.280Z,101197.88
2022-09-24T06:10:36.989Z,101196.16
2022-09-24T06:13:04.150Z,101197.97
2022-09-24T06:15:31.064Z,101195.41
2022-09-24T06:17:57.710Z,101198.06
2022-09-24T06:20:26.825Z,101193.50
2022-09-24T06:23:00.088Z,101196.00
2022-09-24T06:25:27.031Z,101198.44
2022-09-24T06:28:02.075Z,101191.28
2022-09-24T06:30:39.213Z,101197.34
2022-09-24T06:33:10.612Z,101198.97
2022-09-24T06:35:38.367Z,101193.53
2022-09-24T06:38:06.222Z,101196.97
2022-09-24T06:40:36.864Z,101195.13
2022-09-24T06:43:04.422Z,101201.13
2022-09-24T06:45:31.060Z,101203.75
2022-09-24T06:48:03.074Z,101206.31
2022-09-24T06:50:31.992Z,101204.41
2022-09-24T06:53:03.829Z,101210.47
2022-09-24T06:55:37.054Z,101204.22
2022-09-24T06:58:27.503Z,101207.66
2022-09-24T07:00:59.058Z,101201.34
2022-09-24T07:03:27.410Z,101207.34
2022-09-24T07:05:57.451Z,101209.91
2022-09-24T07:08:24.040Z,101211.53
2022-09-24T07:10:53.083Z,101211.41
2022-09-24T07:13:23.518Z,101207.84
2022-09-24T07:15:52.336Z,101205.88
2022-09-24T07:18:20.409Z,101211.13
2022-09-24T07:20:54.783Z,101207.47
2022-09-24T07:23:21.845Z,101207.44
2022-09-24T07:25:51.671Z,101210.84
2022-09-24T07:28:19.673Z,101208.94
2022-09-24T07:30:46.324Z,101209.69
2022-09-24T07:33:18.204Z,101213.97
2022-09-24T07:35:47.625Z,101219.19
2022-09-24T07:38:16.950Z,101216.31
2022-09-24T07:40:45.124Z,101217.06
2022-09-24T07:43:14.167Z,101216.91
2022-09-24T07:45:42.080Z,101220.31
2022-09-24T07:48:10.445Z,101217.47
2022-09-24T07:50:44.682Z,101221.69
2022-09-24T07:53:12.679Z,101225.91
2022-09-24T07:55:41.092Z,101216.81
2022-09-24T07:58:13.729Z,101214.78
2022-09-24T08:00:40.896Z,101217.13
2022-09-24T08:03:07.578Z,101205.38
2022-09-24T08:05:34.738Z,101212.13
2022-09-24T08:08:01.551Z,101221.47
2022-09-24T08:10:28.420Z,101215.84
2022-09-24T08:12:57.042Z,101218.97
2022-09-24T08:15:24.084Z,101217.63
2022-09-24T08:17:51.240Z,101223.41
2022-09-24T08:20:18.250Z,101222.84
2022-09-24T08:22:45.028Z,101226.84
2022-09-24T08:25:11.900Z,101221.13
2022-09-24T08:27:38.615Z,101224.31
2022-09-24T08:30:06.411Z,101226.56
2022-09-24T08:32:33.046Z,101230.63
2022-09-24T08:34:59.651Z,101229.47
2022-09-24T08:37:28.177Z,101234.56
2022-09-24T08:39:54.921Z,101224.47
2022-09-24T08:42:37.574Z,101225.06
2022-09-24T08:45:25.083Z,101238.91
2022-09-24T08:48:09.722Z,101232.34
2022-09-24T08:50:39.679Z,101235.41
2022-09-24T08:53:26.541Z,101229.53
2022-09-24T08:55:55.786Z,101235.31
2022-09-24T08:58:33.005Z,101233.03
2022-09-24T09:01:21.498Z,101234.97
2022-09-24T09:03:57.212Z,101227.78
2022-09-24T09:06:23.787Z,101225.84
2022-09-24T09:09:12.192Z,101223.94
2022-09-24T09:11:40.868Z,101227.53
2022-09-24T09:14:19.659Z,101227.81
2022-09-24T09:16:49.268Z,101226.75
2022-09-24T09:19:18.053Z,101224.06
2022-09-24T09:21:53.714Z,101218.94
2022-09-24T09:24:27.325Z,101219.91
2022-09-24T09:26:56.098Z,101220.69
2022-09-24T09:29:26.655Z,101216.09
2022-09-24T09:32:35.211Z,101219.31
2022-09-24T09:35:29.782Z,101220.72
2022-09-24T09:38:29.507Z,101216.59
2022-09-24T09:41:14.869Z,101231.22
2022-09-24T09:43:41.880Z,101222.69
2022-09-24T09:46:18.619Z,101227.22
2022-09-24T09:48:49.360Z,101228.41
2022-09-24T09:51:22.574Z,101231.91
2022-09-24T09:54:00.708Z,101228.94
2022-09-24T09:56:34.282Z,101222.66
2022-09-24T09:59:12.964Z,101235.00
2022-09-24T10:01:42.170Z,101236.66
2022-09-24T10:04:35.180Z,101227.63
2022-09-24T10:07:16.306Z,101231.00
2022-09-24T10:09:50.462Z,101229.28
2022-09-24T10:12:22.288Z,101230.41
2022-09-24T10:15:04.331Z,101226.19
2022-09-24T10:17:38.382Z,101230.53
2022-09-24T10:20:18.387Z,101226.09
2022-09-24T10:22:52.809Z,101226.94
2022-09-24T10:25:26.342Z,101218.84
2022-09-24T10:28:16.115Z,101224.88
2022-09-24T10:31:01.178Z,101225.06
2022-09-24T10:33:39.621Z,101219.00
2022-09-24T10:36:21.233Z,101220.03
2022-09-24T10:39:01.902Z,101218.31
2022-09-24T10:41:31.402Z,101223.69
2022-09-24T10:44:03.291Z,101221.97
2022-09-24T10:46:53.637Z,101211.25
2022-09-24T10:49:23.073Z,101228.94
2022-09-24T10:51:55.219Z,101222.66
2022-09-24T10:54:33.195Z,101220.84
2022-09-24T10:57:09.005Z,101218.16
2022-09-24T11:00:02.227Z,101224.44
2022-09-24T11:03:11.689Z,101221.00
2022-09-24T11:06:10.671Z,101221.97
2022-09-24T11:09:12.762Z,101217.63
2022-09-24T11:11:59.931Z,101214.09
2022-09-24T11:15:12.038Z,101223.16
2022-09-24T11:18:07.020Z,101215.28
2022-09-24T11:20:49.520Z,101222.63
2022-09-24T11:23:56.626Z,101213.75
2022-09-24T11:26:32.326Z,101222.53
2022-09-24T11:29:50.222Z,101210.03
2022-09-24T11:32:25.817Z,101213.31
2022-09-24T11:35:15.621Z,101216.59
2022-09-24T11:37:51.161Z,101220.66
2022-09-24T11:40:38.648Z,101212.25
2022-09-24T11:43:26.532Z,101210.00
2022-09-24T11:45:58.106Z,101216.75
2022-09-24T11:48:45.885Z,101221.06
2022-09-24T11:51:51.363Z,101217.53
2022-09-24T11:54:30.161Z,101227.38
2022-09-24T11:57:24.195Z,101218.75
2022-09-24T12:00:09.863Z,101224.28
2022-09-24T12:03:04.176Z,101221.94
2022-09-24T12:05:35.906Z,101227.47
2022-09-24T12:08:02.515Z,101228.53
2022-09-24T12:10:32.398Z,101217.97
2022-09-24T12:13:16.064Z,101222.66
2022-09-24T12:15:54.607Z,101220.91
2022-09-24T12:18:24.010Z,101227.06
2022-09-24T12:20:59.404Z,101225.22
2022-09-24T12:23:32.840Z,101228.00
2022-09-24T12:26:05.847Z,101221.88
2022-09-24T12:29:21.270Z,101224.53
2022-09-24T12:32:21.007Z,101224.53
2022-09-24T12:35:00.718Z,101223.50
2022-09-24T12:37:34.226Z,101217.97
2022-09-24T12:40:12.885Z,101224.97
2022-09-24T12:42:45.471Z,101222.22
2022-09-24T12:45:19.383Z,101222.28
2022-09-24T12:48:00.301Z,101225.06
2022-09-24T12:50:40.744Z,101216.91
2022-09-24T12:53:27.881Z,101218.75
2022-09-24T12:56:05.220Z,101221.59
2022-09-24T12:58:44.024Z,101234.94
2022-09-24T13:01:32.743Z,101220.56
2022-09-24T13:04:25.958Z,101225.84
2022-09-24T13:06:53.183Z,101221.06
2022-09-24T13:09:26.323Z,101223.47
2022-09-24T13:12:05.006Z,101227.81
2022-09-24T13:14:36.275Z,101222.28
2022-09-24T13:17:08.888Z,101226.84
2022-09-24T13:19:41.127Z,101224.38
2022-09-24T13:22:29.591Z,101224.63
2022-09-24T13:25:08.232Z,101215.81
2022-09-24T13:27:41.393Z,101225.59
2022-09-24T13:30:19.651Z,101226.28
2022-09-24T13:33:01.134Z,101221.75
2022-09-24T13:35:35.703Z,101220.22
2022-09-24T13:38:12.512Z,101222.78
2022-09-24T13:40:45.667Z,101215.72
2022-09-24T13:43:25.334Z,101217.53
2022-09-24T13:45:52.798Z,101219.44
2022-09-24T13:48:38.878Z,101216.22
2022-09-24T13:51:11.933Z,101215.53
2022-09-24T13:53:55.985Z,101211.03
2022-09-24T13:56:23.491Z,101215.66
2022-09-24T13:58:51.501Z,101210.56
2022-09-24T14:01:30.014Z,101217.00
2022-09-24T14:04:01.108Z,101209.88
2022-09-24T14:06:37.484Z,101218.66
2022-09-24T14:09:31.790Z,101216.94
2022-09-24T14:12:03.483Z,101210.63
2022-09-24T14:14:34.752Z,101206.91
2022-09-24T14:17:09.515Z,101214.84
2022-09-24T14:19:36.304Z,101213.13
2022-09-24T14:22:06.843Z,101202.25
2022-09-24T14:24:48.387Z,101200.31
2022-09-24T14:27:19.585Z,101209.09
2022-09-24T14:29:53.402Z,101206.19
2022-09-24T14:32:27.740Z,101205.16
2022-09-24T14:35:07.960Z,101203.28
2022-09-24T14:37:38.131Z,101208.47
2022-09-24T14:40:14.686Z,101199.47
2022-09-24T14:43:03.369Z,101207.22
2022-09-24T14:45:40.960Z,101205.41
2022-09-24T14:48:30.685Z,101206.38
2022-09-24T14:50:57.421Z,101204.72
2022-09-24T14:53:27.026Z,101212.59
2022-09-24T14:55:54.359Z,101214.22
2022-09-24T14:58:30.028Z,101208.69
2022-09-24T15:01:05.907Z,101208.59
2022-09-24T15:03:50.341Z,101196.84
2022-09-24T15:06:23.465Z,101206.03
2022-09-24T15:09:07.439Z,101193.56
2022-09-24T15:11:43.251Z,101191.75
2022-09-24T15:14:20.139Z,101183.59
2022-09-24T15:16:47.726Z,101180.94
2022-09-24T15:19:20.350Z,101196.09
2022-09-24T15:21:51.537Z,101188.22
2022-09-24T15:24:20.326Z,101190.03
2022-09-24T15:27:08.355Z,101193.75
2022-09-24T15:29:35.023Z,101193.94
2022-09-24T15:32:02.363Z,101198.44
2022-09-24T15:34:29.094Z,101199.47
2022-09-24T15:37:01.590Z,101196.94
2022-09-24T15:39:28.741Z,101197.97
2022-09-24T15:41:55.354Z,101196.38
2022-09-24T15:44:27.188Z,101195.75
2022-09-24T15:46:56.818Z,101197.91
2022-09-24T15:49:23.815Z,101199.03
2022-09-24T15:51:59.958Z,101195.69
2022-09-24T15:54:26.573Z,101205.00
2022-09-24T15:56:53.350Z,101202.66
2022-09-24T15:59:21.647Z,101202.97
2022-09-24T16:01:51.245Z,101197.19
2022-09-24T16:04:18.000Z,101202.00
2022-09-24T16:06:44.675Z,101208.56
2022-09-24T16:09:11.286Z,101211.56
2022-09-24T16:11:38.088Z,101209.41
2022-09-24T16:14:05.762Z,101211.78
2022-09-24T16:16:32.440Z,101212.28
2022-09-24T16:18:59.394Z,101209.13
2022-09-24T16:21:26.082Z,101220.19
2022-09-24T16:23:56.819Z,101215.28
2022-09-24T16:26:23.694Z,101215.75
2022-09-24T16:28:51.701Z,101223.31
2022-09-24T16:31:21.361Z,101219.13
2022-09-24T16:33:48.190Z,101223.03
2022-09-24T16:36:14.852Z,101220.59
2022-09-24T16:38:41.539Z,101219.03
2022-09-24T16:41:08.454Z,101216.44
2022-09-24T16:43:35.085Z,101210.38
2022-09-24T16:46:03.773Z,101206.88
2022-09-24T16:48:31.484Z,101206.03
2022-09-24T16:51:08.281Z,101209.81
2022-09-24T16:53:35.302Z,101212.72
2022-09-24T16:56:08.496Z,101217.50
2022-09-24T16:58:35.563Z,101213.31
2022-09-24T17:01:11.062Z,101210.16
2022-09-24T17:03:40.973Z,101209.50
2022-09-24T17:06:08.199Z,101214.06
2022-09-24T17:08:55.126Z,101211.59
2022-09-24T17:11:22.754Z,101218.91
2022-09-24T17:13:49.395Z,101219.06
2022-09-24T17:16:18.264Z,101223.63
2022-09-24T17:18:46.230Z,101224.56
2022-09-24T17:21:13.520Z,101212.28
2022-09-24T17:23:40.196Z,101213.31
2022-09-24T17:26:12.475Z,101213.38
2022-09-24T17:28:43.874Z,101211.63
2022-09-24T17:31:14.374Z,101211.78
2022-09-24T17:33:45.285Z,101210.25
2022-09-24T17:36:12.864Z,101213.16
2022-09-24T17:38:39.750Z,101218.84
2022-09-24T17:41:11.843Z,101216.38
2022-09-24T17:43:39.597Z,101216.53
2022-09-24T17:46:13.764Z,101222.16
2022-09-24T17:48:47.642Z,101216.06
2022-09-24T17:51:17.009Z,101217.06
2022-09-24T17:53:43.614Z,101219.75
2022-09-24T17:56:12.626Z,101215.47
2022-09-24T17:58:41.875Z,101208.56
2022-09-24T18:01:13.731Z,101214.09
2022-09-24T18:03:41.144Z,101218.47
2022-09-24T18:06:10.729Z,101211.50
2022-09-24T18:08:39.305Z,101217.03
2022-09-24T18:11:09.612Z,101215.38
2022-09-24T18:13:36.549Z,101212.84
2022-09-24T18:16:15.434Z,101207.69
2022-09-24T18:18:43.681Z,101213.38
2022-09-24T18:21:12.519Z,101211.72
2022-09-24T18:23:40.198Z,101213.66
2022-09-24T18:26:11.895Z,101223.66
2022-09-24T18:28:53.563Z,101218.38
2022-09-24T18:31:22.894Z,101216.59
2022-09-24T18:33:51.183Z,101224.66
2022-09-24T18:36:21.813Z,101217.59
2022-09-24T18:38:48.734Z,101230.84
2022-09-24T18:41:24.150Z,101232.66
2022-09-24T18:43:52.304Z,101228.41
2022-09-24T18:46:21.302Z,101232.13
2022-09-24T18:48:50.207Z,101226.84
2022-09-24T18:51:19.728Z,101233.22
2022-09-24T18:53:52.210Z,101237.66
2022-09-24T18:56:18.901Z,101242.94
2022-09-24T18:58:47.101Z,101237.72
2022-09-24T19:01:15.647Z,101239.66
2022-09-24T19:03:43.477Z,101240.72
2022-09-24T19:06:12.962Z,101238.97
2022-09-24T19:08:40.171Z,101233.63
2022-09-24T19:11:13.884Z,101231.72
2022-09-24T19:13:42.636Z,101244.13
2022-09-24T19:16:14.382Z,101241.47
2022-09-24T19:18:41.893Z,101240.78
2022-09-24T19:21:10.915Z,101236.44
2022-09-24T19:23:38.490Z,101241.75
2022-09-24T19:26:06.807Z,101236.44
2022-09-24T19:28:35.043Z,101232.97
2022-09-24T19:31:02.333Z,101244.59
2022-09-24T19:33:29.527Z,101240.16
2022-09-24T19:35:59.395Z,101237.56
2022-09-24T19:38:28.504Z,101248.28
2022-09-24T19:41:04.842Z,101241.31
2022-09-24T19:43:34.727Z,101240.38
2022-09-24T19:46:06.894Z,101235.25
2022-09-24T19:48:38.222Z,101235.38
2022-09-24T19:51:08.753Z,101238.16
2022-09-24T19:53:36.207Z,101235.41
2022-09-24T19:56:06.496Z,101228.28
2022-09-24T19:58:33.458Z,101230.91
2022-09-24T20:01:14.943Z,101227.38
2022-09-24T20:03:43.805Z,101234.50
2022-09-24T20:06:13.524Z,101225.69
2022-09-24T20:08:40.499Z,101223.09
2022-09-24T20:11:10.905Z,101230.28
2022-09-24T20:13:46.126Z,101231.22
2022-09-24T20:16:24.421Z,101228.69
2022-09-24T20:18:55.674Z,101231.34
2022-09-24T20:21:23.030Z,101237.53
2022-09-24T20:23:49.936Z,101230.47
2022-09-24T20:26:35.624Z,101238.41
2022-09-24T20:29:02.983Z,101226.91
2022-09-24T20:31:30.208Z,101234.13
2022-09-24T20:33:57.108Z,101235.97
2022-09-24T20:36:25.007Z,101235.13
2022-09-24T20:38:52.872Z,101238.72
2022-09-24T20:41:22.029Z,101244.16
2022-09-24T20:43:49.757Z,101247.03
2022-09-24T20:46:21.943Z,101237.38
2022-09-24T20:48:48.743Z,101246.38
2022-09-24T20:51:18.207Z,101247.47
2022-09-24T20:53:46.369Z,101246.84
2022-09-24T20:56:13.739Z,101247.09
2022-09-24T20:58:41.126Z,101248.03
2022-09-24T21:01:10.355Z,101246.22
2022-09-24T21:03:44.359Z,101238.31
2022-09-24T21:06:12.779Z,101240.06
2022-09-24T21:08:41.647Z,101239.28
2022-09-24T21:11:11.352Z,101235.06
2022-09-24T21:13:44.742Z,101233.56
2022-09-24T21:16:12.399Z,101235.56
2022-09-24T21:18:44.423Z,101231.22
2022-09-24T21:21:19.220Z,101232.06
2022-09-24T21:23:49.916Z,101232.94
2022-09-24T21:26:30.974Z,101237.28
2022-09-24T21:29:03.696Z,101232.81
2022-09-24T21:31:32.954Z,101232.00
2022-09-24T21:33:59.943Z,101240.06
2022-09-24T21:36:32.092Z,101227.59
2022-09-24T21:39:00.637Z,101229.53
2022-09-24T21:41:29.564Z,101229.59
2022-09-24T21:43:56.287Z,101229.72
2022-09-24T21:46:24.533Z,101231.66
2022-09-24T21:48:52.179Z,101230.91
2022-09-24T21:51:21.783Z,101225.66
2022-09-24T21:53:57.779Z,101236.19
2022-09-24T21:56:25.065Z,101238.97
2022-09-24T21:58:52.943Z,101228.38
2022-09-24T22:01:31.001Z,101228.47
2022-09-24T22:03:59.818Z,101230.34
2022-09-24T22:06:29.104Z,101230.38
2022-09-24T22:09:04.607Z,101230.47
2022-09-24T22:11:31.868Z,101229.59
2022-09-24T22:14:02.421Z,101228.66
2022-09-24T22:16:31.097Z,101226.81
2022-09-24T22:18:58.261Z,101228.63
2022-09-24T22:21:25.468Z,101230.38
2022-09-24T22:23:52.097Z,101235.66
2022-09-24T22:26:18.999Z,101243.69
2022-09-24T22:28:45.987Z,101236.72
2022-09-24T22:31:15.338Z,101233.97
2022-09-24T22:34:01.252Z,101231.41
2022-09-24T22:36:30.527Z,101233.94
2022-09-24T22:38:59.469Z,101236.53
2022-09-24T22:41:28.967Z,101225.88
2022-09-24T22:43:57.055Z,101224.19
2022-09-24T22:46:27.899Z,101225.97
2022-09-24T22:48:56.349Z,101228.63
2022-09-24T22:51:25.206Z,101228.66
2022-09-24T22:53:52.022Z,101224.19
2022-09-24T22:56:21.807Z,101221.59
2022-09-24T22:58:56.700Z,101220.75
2022-09-24T23:01:35.116Z,101219.06
2022-09-24T23:04:02.481Z,101224.56
2022-09-24T23:06:30.438Z,101225.56
2022-09-24T23:08:57.782Z,101221.31
2022-09-24T23:11:27.431Z,101217.84
2022-09-24T23:13:59.574Z,101217.88
2022-09-24T23:16:28.708Z,101212.56
2022-09-24T23:18:58.122Z,101215.34
2022-09-24T23:21:27.026Z,101213.59
2022-09-24T23:23:54.838Z,101211.13
2022-09-24T23:26:23.039Z,101207.72
2022-09-24T23:28:53.311Z,101207.81
2022-09-24T23:31:25.203Z,101211.44
2022-09-24T23:33:53.287Z,101207.97
2022-09-24T23:36:19.947Z,101208.91
2022-09-24T23:38:46.572Z,101207.09
2022-09-24T23:41:14.219Z,101207.09
2022-09-24T23:43:41.892Z,101203.59
2022-09-24T23:46:09.841Z,101200.09
2022-09-24T23:48:36.886Z,101199.41
2022-09-24T23:51:04.443Z,101196.03
2022-09-24T23:53:31.527Z,101196.19
2022-09-24T23:55:58.119Z,101198.19
2022-09-24T23:58:25.130Z,101193.81
